createdAt,value
2022-12-18T00:01:19.233Z,52.41
2022-12-18T00:03:47.332Z,52.25
2022-12-18T00:06:16.097Z,52.31
2022-12-18T00:08:44.750Z,52.09
2022-12-18T00:11:15.821Z,53.09
2022-12-18T00:13:44.166Z,51.04
2022-12-18T00:16:14.603Z,53.09
2022-12-18T00:18:42.885Z,53.98
2022-12-18T00:21:12.161Z,53.70
2022-12-18T00:23:41.868Z,53.99
2022-12-18T00:26:13.686Z,54.28
2022-12-18T00:28:40.965Z,54.11
2022-12-18T00:31:11.430Z,53.85
2022-12-18T00:33:39.723Z,53.76
2022-12-18T00:36:10.619Z,53.84
2022-12-18T00:38:39.025Z,53.58
2022-12-18T00:41:08.597Z,53.29
2022-12-18T00:43:37.977Z,53.11
2022-12-18T00:46:05.858Z,53.14
2022-12-18T00:48:33.787Z,53.32
2022-12-18T00:51:01.241Z,53.11
2022-12-18T00:53:28.563Z,52.95
2022-12-18T00:55:57.091Z,52.88
2022-12-18T00:58:24.523Z,52.50
2022-12-18T01:00:51.865Z,52.71
2022-12-18T01:03:19.193Z,52.69
2022-12-18T01:05:46.658Z,52.24
2022-12-18T01:08:13.883Z,52.46
2022-12-18T01:10:44.398Z,52.28
2022-12-18T01:13:12.381Z,52.15
2022-12-18T01:15:41.134Z,52.09
2022-12-18T01:18:11.683Z,52.07
2022-12-18T01:20:39.293Z,52.00
2022-12-18T01:23:06.715Z,52.05
2022-12-18T01:25:37.286Z,51.87
2022-12-18T01:28:04.744Z,51.98
2022-12-18T01:30:33.211Z,52.02
2022-12-18T01:33:00.571Z,51.91
2022-12-18T01:35:27.914Z,51.86
2022-12-18T01:37:56.126Z,51.70
2022-12-18T01:40:23.815Z,51.85
2022-12-18T01:42:54.253Z,51.90
2022-12-18T01:45:26.443Z,51.82
2022-12-18T01:47:56.419Z,51.80
2022-12-18T01:50:33.275Z,51.76
2022-12-18T01:53:06.694Z,51.69
2022-12-18T01:55:41.453Z,51.74
2022-12-18T01:58:08.741Z,51.64
2022-12-18T02:00:36.184Z,51.64
2022-12-18T02:03:03.665Z,51.58
2022-12-18T02:05:40.125Z,51.55
2022-12-18T02:08:17.952Z,51.56
2022-12-18T02:11:03.831Z,51.70
2022-12-18T02:13:50.964Z,51.42
2022-12-18T02:16:21.225Z,51.62
2022-12-18T02:18:58.953Z,51.46
2022-12-18T02:21:44.055Z,51.34
2022-12-18T02:24:40.759Z,51.50
2022-12-18T02:27:10.500Z,51.34
2022-12-18T02:29:54.333Z,51.38
2022-12-18T02:32:31.272Z,51.30
2022-12-18T02:35:00.403Z,51.31
2022-12-18T02:37:31.796Z,51.26
2022-12-18T02:40:05.122Z,51.32
2022-12-18T02:42:34.321Z,51.40
2022-12-18T02:45:04.256Z,51.37
2022-12-18T02:47:37.990Z,51.32
2022-12-18T02:50:32.062Z,51.44
2022-12-18T02:53:16.578Z,51.41
2022-12-18T02:55:46.918Z,51.28
2022-12-18T02:58:22.534Z,51.54
2022-12-18T03:01:02.727Z,51.34
2022-12-18T03:03:40.662Z,51.51
2022-12-18T03:06:34.471Z,51.19
2022-12-18T03:09:10.205Z,51.57
2022-12-18T03:12:02.165Z,51.34
2022-12-18T03:14:32.126Z,51.38
2022-12-18T03:17:03.600Z,51.32
2022-12-18T03:19:34.399Z,51.17
2022-12-18T03:22:08.104Z,51.14
2022-12-18T03:24:47.251Z,51.20
2022-12-18T03:27:17.901Z,51.26
2022-12-18T03:29:47.665Z,51.21
2022-12-18T03:32:30.441Z,51.13
2022-12-18T03:35:04.203Z,51.12
2022-12-18T03:37:34.908Z,51.11
2022-12-18T03:40:02.857Z,50.94
2022-12-18T03:42:53.771Z,50.93
2022-12-18T03:45:38.712Z,50.94
2022-12-18T03:48:17.009Z,51.13
2022-12-18T03:50:58.283Z,51.00
2022-12-18T03:53:40.576Z,50.95
2022-12-18T03:56:10.889Z,51.02
2022-12-18T03:58:44.233Z,51.15
2022-12-18T04:01:20.866Z,51.00
2022-12-18T04:03:51.070Z,50.95
2022-12-18T04:06:21.168Z,50.94
2022-12-18T04:08:48.760Z,51.07
2022-12-18T04:11:20.924Z,51.19
2022-12-18T04:13:48.883Z,51.04
2022-12-18T04:16:23.046Z,50.96
2022-12-18T04:18:54.172Z,51.12
2022-12-18T04:21:23.760Z,51.07
2022-12-18T04:23:51.263Z,51.07
2022-12-18T04:26:21.472Z,51.08
2022-12-18T04:29:20.956Z,51.01
2022-12-18T04:31:48.637Z,51.08
2022-12-18T04:34:17.115Z,51.08
2022-12-18T04:36:50.417Z,50.91
2022-12-18T04:39:18.381Z,50.99
2022-12-18T04:41:46.608Z,50.90
2022-12-18T04:44:14.825Z,50.79
2022-12-18T04:46:42.249Z,50.82
2022-12-18T04:49:11.416Z,50.84
2022-12-18T04:51:38.722Z,50.61
2022-12-18T04:54:06.119Z,50.71
2022-12-18T04:56:33.589Z,50.65
2022-12-18T04:59:01.266Z,50.53
2022-12-18T05:01:34.362Z,50.64
2022-12-18T05:04:02.905Z,50.44
2022-12-18T05:06:30.427Z,50.50
2022-12-18T05:08:57.766Z,50.46
2022-12-18T05:11:25.079Z,50.38
2022-12-18T05:13:52.425Z,50.39
2022-12-18T05:16:19.761Z,50.36
2022-12-18T05:18:55.901Z,50.37
2022-12-18T05:21:23.219Z,50.39
2022-12-18T05:23:50.447Z,50.28
2022-12-18T05:26:19.122Z,50.31
2022-12-18T05:28:47.114Z,50.39
2022-12-18T05:31:15.269Z,50.27
2022-12-18T05:33:43.005Z,50.23
2022-12-18T05:36:10.856Z,50.30
2022-12-18T05:38:39.579Z,50.39
2022-12-18T05:41:08.176Z,50.02
2022-12-18T05:43:37.546Z,50.22
2022-12-18T05:46:07.489Z,50.24
2022-12-18T05:48:35.349Z,50.31
2022-12-18T05:51:08.315Z,50.18
2022-12-18T05:53:37.810Z,50.28
2022-12-18T05:56:07.869Z,50.19
2022-12-18T05:58:35.779Z,50.13
2022-12-18T06:01:20.458Z,50.03
2022-12-18T06:03:48.106Z,50.08
2022-12-18T06:06:16.892Z,50.00
2022-12-18T06:08:46.702Z,49.89
2022-12-18T06:11:18.506Z,49.98
2022-12-18T06:13:46.069Z,49.92
2022-12-18T06:16:14.098Z,49.93
2022-12-18T06:18:41.432Z,49.92
2022-12-18T06:21:08.747Z,49.84
2022-12-18T06:23:37.004Z,49.91
2022-12-18T06:26:09.927Z,49.84
2022-12-18T06:28:37.251Z,50.00
2022-12-18T06:31:05.824Z,49.83
2022-12-18T06:33:33.792Z,49.84
2022-12-18T06:36:03.750Z,50.02
2022-12-18T06:38:34.065Z,49.89
2022-12-18T06:41:01.343Z,49.90
2022-12-18T06:43:28.619Z,49.79
2022-12-18T06:46:00.815Z,49.95
2022-12-18T06:48:28.372Z,49.76
2022-12-18T06:50:55.935Z,49.92
2022-12-18T06:53:23.893Z,49.83
2022-12-18T06:55:51.384Z,49.86
2022-12-18T06:58:19.024Z,49.83
2022-12-18T07:00:46.411Z,49.90
2022-12-18T07:03:14.152Z,49.94
2022-12-18T07:05:42.128Z,49.91
2022-12-18T07:08:09.446Z,49.91
2022-12-18T07:10:47.522Z,49.91
2022-12-18T07:13:17.382Z,49.95
2022-12-18T07:15:45.444Z,49.86
2022-12-18T07:18:12.816Z,50.04
2022-12-18T07:20:40.872Z,49.94
2022-12-18T07:23:08.169Z,49.96
2022-12-18T07:25:37.402Z,50.04
2022-12-18T07:28:05.680Z,49.97
2022-12-18T07:30:32.974Z,49.96
2022-12-18T07:33:00.345Z,49.99
2022-12-18T07:35:27.600Z,49.89
2022-12-18T07:37:54.879Z,49.99
2022-12-18T07:40:22.170Z,49.83
2022-12-18T07:42:49.474Z,49.66
2022-12-18T07:45:16.925Z,49.76
2022-12-18T07:47:44.505Z,49.87
2022-12-18T07:50:12.004Z,49.99
2022-12-18T07:52:39.277Z,49.77
2022-12-18T07:55:06.948Z,49.76
2022-12-18T07:57:50.019Z,49.95
2022-12-18T08:00:18.894Z,49.82
2022-12-18T08:02:46.239Z,49.77
2022-12-18T08:05:14.395Z,49.83
2022-12-18T08:07:41.712Z,49.78
2022-12-18T08:10:09.599Z,49.64
2022-12-18T08:12:36.904Z,49.64
2022-12-18T08:15:04.462Z,49.72
2022-12-18T08:17:32.284Z,49.76
2022-12-18T08:19:59.585Z,49.71
2022-12-18T08:22:26.891Z,49.50
2022-12-18T08:24:54.389Z,49.51
2022-12-18T08:27:29.438Z,49.67
2022-12-18T08:29:57.842Z,49.82
2022-12-18T08:32:27.223Z,49.70
2022-12-18T08:34:54.918Z,49.56
2022-12-18T08:37:22.274Z,49.63
2022-12-18T08:39:49.589Z,49.16
2022-12-18T08:42:35.592Z,49.23
2022-12-18T08:45:03.995Z,49.25
2022-12-18T08:47:31.316Z,49.04
2022-12-18T08:49:58.721Z,48.99
2022-12-18T08:52:26.021Z,49.62
2022-12-18T08:54:53.210Z,49.56
2022-12-18T08:57:20.480Z,49.57
2022-12-18T08:59:47.697Z,49.52
2022-12-18T09:02:15.049Z,49.49
2022-12-18T09:04:42.520Z,48.65
2022-12-18T09:07:10.029Z,48.80
2022-12-18T09:09:37.443Z,48.28
2022-12-18T09:12:04.812Z,49.10
2022-12-18T09:14:32.050Z,48.23
2022-12-18T09:16:59.394Z,48.70
2022-12-18T09:19:27.813Z,48.34
2022-12-18T09:21:55.493Z,48.02
2022-12-18T09:24:22.847Z,48.09
2022-12-18T09:26:57.663Z,47.96
2022-12-18T09:29:25.652Z,47.78
2022-12-18T09:31:53.021Z,47.91
2022-12-18T09:34:22.729Z,47.74
2022-12-18T09:36:50.339Z,47.59
2022-12-18T09:39:18.544Z,47.48
2022-12-18T09:41:57.991Z,47.02
2022-12-18T09:44:44.511Z,47.53
2022-12-18T09:47:15.553Z,47.40
2022-12-18T09:49:49.319Z,47.68
2022-12-18T09:52:36.888Z,47.17
2022-12-18T09:55:25.713Z,46.51
2022-12-18T09:57:58.720Z,47.13
2022-12-18T10:00:26.851Z,47.95
2022-12-18T10:03:00.860Z,48.02
2022-12-18T10:06:02.932Z,47.66
2022-12-18T10:09:03.492Z,47.54
2022-12-18T10:11:50.139Z,45.67
2022-12-18T10:14:35.901Z,45.62
2022-12-18T10:17:21.773Z,43.79
2022-12-18T10:20:15.297Z,45.48
2022-12-18T10:23:01.480Z,45.15
2022-12-18T10:25:46.709Z,44.46
2022-12-18T10:28:16.558Z,44.53
2022-12-18T10:30:44.850Z,43.78
2022-12-18T10:33:18.950Z,44.77
2022-12-18T10:35:48.093Z,44.05
2022-12-18T10:38:15.345Z,43.89
2022-12-18T10:40:55.052Z,43.59
2022-12-18T10:43:32.870Z,44.00
2022-12-18T10:46:09.049Z,45.57
2022-12-18T10:48:48.125Z,44.73
2022-12-18T10:51:30.292Z,44.80
2022-12-18T10:54:03.051Z,43.74
2022-12-18T10:56:35.059Z,42.77
2022-12-18T10:59:13.729Z,41.79
2022-12-18T11:01:53.193Z,40.08
2022-12-18T11:04:31.523Z,42.93
2022-12-18T11:07:03.916Z,44.21
2022-12-18T11:09:33.889Z,44.73
2022-12-18T11:12:15.467Z,44.60
2022-12-18T11:14:47.609Z,44.39
2022-12-18T11:17:25.847Z,45.46
2022-12-18T11:20:07.942Z,45.07
2022-12-18T11:22:37.853Z,45.11
2022-12-18T11:25:35.437Z,44.90
2022-12-18T11:28:25.966Z,45.00
2022-12-18T11:31:18.111Z,45.50
2022-12-18T11:34:28.550Z,45.33
2022-12-18T11:37:00.632Z,45.39
2022-12-18T11:39:33.916Z,45.66
2022-12-18T11:42:21.346Z,45.76
2022-12-18T11:44:59.393Z,45.72
2022-12-18T11:47:40.246Z,45.11
2022-12-18T11:51:03.223Z,45.11
2022-12-18T11:53:31.463Z,46.06
2022-12-18T11:56:16.938Z,45.53
2022-12-18T11:58:47.160Z,45.89
2022-12-18T12:01:29.216Z,46.00
2022-12-18T12:04:17.826Z,45.16
2022-12-18T12:07:06.679Z,45.60
2022-12-18T12:09:58.361Z,45.27
2022-12-18T12:12:48.552Z,44.57
2022-12-18T12:15:56.485Z,44.62
2022-12-18T12:18:57.756Z,45.83
2022-12-18T12:21:50.955Z,45.64
2022-12-18T12:24:25.414Z,46.17
2022-12-18T12:27:16.408Z,46.55
2022-12-18T12:29:56.742Z,46.17
2022-12-18T12:32:32.264Z,46.33
2022-12-18T12:35:18.073Z,45.55
2022-12-18T12:38:06.786Z,46.66
2022-12-18T12:40:52.670Z,46.64
2022-12-18T12:46:52.922Z,46.90
2022-12-18T12:49:24.638Z,46.90
2022-12-18T12:52:01.720Z,47.11
2022-12-18T12:54:29.970Z,46.93
2022-12-18T12:57:14.515Z,47.23
2022-12-18T12:59:59.410Z,47.05
2022-12-18T13:02:37.023Z,47.18
2022-12-18T13:05:35.894Z,47.54
2022-12-18T13:08:11.010Z,47.37
2022-12-18T13:10:41.518Z,47.18
2022-12-18T13:13:16.495Z,47.27
2022-12-18T13:16:06.622Z,47.57
2022-12-18T13:18:35.433Z,47.76
2022-12-18T13:21:25.715Z,47.48
2022-12-18T13:23:53.061Z,47.93
2022-12-18T13:26:24.760Z,47.78
2022-12-18T13:28:56.578Z,47.76
2022-12-18T13:31:43.400Z,48.10
2022-12-18T13:34:27.737Z,48.07
2022-12-18T13:37:17.730Z,47.73
2022-12-18T13:39:45.189Z,48.07
2022-12-18T13:42:35.825Z,48.28
2022-12-18T13:45:58.332Z,48.40
2022-12-18T13:48:27.990Z,47.56
2022-12-18T13:51:05.704Z,47.74
2022-12-18T13:53:45.737Z,47.64
2022-12-18T13:56:29.441Z,47.60
2022-12-18T13:59:17.911Z,47.52
2022-12-18T14:01:56.495Z,47.43
2022-12-18T14:04:30.333Z,47.47
2022-12-18T14:07:11.906Z,47.32
2022-12-18T14:09:44.385Z,47.28
2022-12-18T14:12:45.045Z,47.25
2022-12-18T14:15:28.054Z,47.23
2022-12-18T14:17:59.337Z,47.12
2022-12-18T14:20:29.264Z,46.77
2022-12-18T14:22:58.469Z,46.85
2022-12-18T14:25:31.797Z,47.11
2022-12-18T14:28:09.143Z,46.68
2022-12-18T14:30:37.491Z,46.99
2022-12-18T14:33:16.493Z,46.68
2022-12-18T14:36:05.562Z,47.47
2022-12-18T14:38:37.260Z,46.67
2022-12-18T14:41:12.942Z,46.52
2022-12-18T14:43:43.530Z,46.67
2022-12-18T14:46:40.243Z,46.92
2022-12-18T14:49:25.832Z,46.48
2022-12-18T14:51:56.214Z,46.31
2022-12-18T14:54:25.184Z,46.26
2022-12-18T14:57:21.344Z,46.23
2022-12-18T14:59:48.766Z,46.05
2022-12-18T15:02:28.992Z,46.55
2022-12-18T15:05:13.584Z,46.14
2022-12-18T15:07:51.845Z,46.25
2022-12-18T15:10:27.744Z,46.23
2022-12-18T15:12:58.084Z,46.23
2022-12-18T15:15:34.931Z,46.34
2022-12-18T15:18:09.795Z,46.26
2022-12-18T15:20:41.323Z,46.40
2022-12-18T15:23:37.391Z,46.69
2022-12-18T15:26:11.470Z,46.51
2022-12-18T15:28:40.729Z,46.73
2022-12-18T15:31:12.515Z,46.89
2022-12-18T15:33:47.178Z,46.92
2022-12-18T15:36:18.999Z,46.78
2022-12-18T15:38:56.169Z,47.32
2022-12-18T15:41:35.752Z,47.42
2022-12-18T15:44:21.904Z,47.78
2022-12-18T15:46:49.409Z,47.89
2022-12-18T15:49:16.666Z,47.80
2022-12-18T15:51:44.275Z,49.01
2022-12-18T15:54:17.147Z,48.84
2022-12-18T15:57:03.080Z,48.76
2022-12-18T15:59:30.441Z,48.97
2022-12-18T16:01:58.040Z,49.25
2022-12-18T16:04:26.269Z,49.47
2022-12-18T16:09:41.148Z,48.84
2022-12-18T16:12:20.263Z,49.20
2022-12-18T16:14:47.618Z,49.14
2022-12-18T16:17:15.753Z,48.93
2022-12-18T16:19:44.814Z,48.91
2022-12-18T16:22:28.831Z,49.04
2022-12-18T16:24:57.247Z,48.70
2022-12-18T16:27:25.732Z,49.13
2022-12-18T16:29:52.943Z,49.03
2022-12-18T16:32:22.423Z,49.02
2022-12-18T16:34:50.872Z,48.69
2022-12-18T16:37:18.278Z,48.42
2022-12-18T16:39:45.986Z,48.38
2022-12-18T16:42:17.528Z,48.27
2022-12-18T16:44:45.985Z,48.11
2022-12-18T16:47:14.939Z,48.12
2022-12-18T16:49:45.333Z,48.01
2022-12-18T16:52:14.043Z,48.08
2022-12-18T16:54:41.417Z,48.06
2022-12-18T16:57:13.104Z,47.79
2022-12-18T16:59:40.529Z,47.79
2022-12-18T17:02:15.024Z,47.69
2022-12-18T17:04:44.136Z,47.73
2022-12-18T17:07:11.824Z,47.59
2022-12-18T17:09:40.517Z,47.57
2022-12-18T17:12:08.379Z,47.52
2022-12-18T17:14:36.382Z,47.48
2022-12-18T17:17:21.273Z,47.49
2022-12-18T17:19:49.563Z,47.30
2022-12-18T17:22:16.974Z,47.38
2022-12-18T17:24:44.443Z,47.26
2022-12-18T17:27:11.837Z,47.23
2022-12-18T17:29:45.319Z,47.26
2022-12-18T17:32:15.304Z,47.04
2022-12-18T17:34:42.644Z,47.00
2022-12-18T17:37:11.598Z,46.93
2022-12-18T17:39:39.203Z,46.97
2022-12-18T17:42:07.697Z,47.10
2022-12-18T17:44:37.096Z,46.88
2022-12-18T17:47:06.089Z,46.84
2022-12-18T17:49:33.420Z,46.75
2022-12-18T17:52:00.742Z,47.08
2022-12-18T17:54:28.096Z,46.85
2022-12-18T17:56:55.486Z,46.72
2022-12-18T17:59:22.873Z,46.78
2022-12-18T18:01:50.408Z,46.91
2022-12-18T18:04:17.858Z,46.68
2022-12-18T18:06:45.205Z,46.51
2022-12-18T18:09:16.126Z,46.67
2022-12-18T18:12:03.797Z,46.78
2022-12-18T18:14:32.348Z,46.78
2022-12-18T18:17:04.217Z,46.36
2022-12-18T18:19:33.630Z,46.22
2022-12-18T18:22:02.132Z,46.46
2022-12-18T18:24:30.795Z,46.35
2022-12-18T18:27:00.017Z,46.36
2022-12-18T18:29:30.553Z,46.85
2022-12-18T18:31:58.847Z,46.56
2022-12-18T18:34:29.483Z,46.50
2022-12-18T18:36:56.935Z,46.79
2022-12-18T18:39:24.339Z,46.56
2022-12-18T18:41:51.777Z,46.63
2022-12-18T18:44:26.141Z,47.00
2022-12-18T18:46:55.928Z,46.93
2022-12-18T18:49:27.058Z,47.03
2022-12-18T18:51:55.848Z,46.98
2022-12-18T18:54:23.743Z,46.90
2022-12-18T18:59:38.636Z,46.90
2022-12-18T19:02:06.601Z,46.59
2022-12-18T19:04:34.428Z,46.94
2022-12-18T19:07:02.171Z,46.90
2022-12-18T19:09:29.505Z,46.93
2022-12-18T19:12:16.193Z,46.84
2022-12-18T19:14:44.714Z,46.94
2022-12-18T19:17:11.990Z,47.03
2022-12-18T19:19:39.345Z,47.00
2022-12-18T19:22:06.744Z,46.93
2022-12-18T19:24:34.112Z,46.90
2022-12-18T19:27:01.482Z,46.99
2022-12-18T19:29:28.809Z,47.03
2022-12-18T19:31:56.315Z,46.90
2022-12-18T19:34:23.604Z,47.08
2022-12-18T19:36:53.903Z,47.21
2022-12-18T19:39:25.673Z,46.89
2022-12-18T19:41:53.036Z,46.83
2022-12-18T19:45:25.791Z,46.83
2022-12-18T19:47:53.215Z,47.07
2022-12-18T19:50:20.572Z,46.85
2022-12-18T19:52:47.870Z,46.94
2022-12-18T19:55:15.320Z,47.12
2022-12-18T19:57:42.600Z,47.09
2022-12-18T20:00:16.926Z,47.04
2022-12-18T20:02:46.130Z,46.89
2022-12-18T20:05:13.994Z,46.89
2022-12-18T20:07:41.398Z,46.99
2022-12-18T20:10:14.629Z,46.85
2022-12-18T20:12:43.408Z,47.11
2022-12-18T20:15:11.171Z,46.50
2022-12-18T20:17:38.728Z,46.71
2022-12-18T20:20:06.654Z,46.86
2022-12-18T20:22:34.694Z,46.75
2022-12-18T20:25:02.058Z,46.75
2022-12-18T20:27:29.442Z,46.56
2022-12-18T20:29:56.838Z,46.53
2022-12-18T20:32:25.549Z,46.35
2022-12-18T20:34:52.970Z,46.52
2022-12-18T20:37:20.533Z,46.11
2022-12-18T20:39:48.651Z,46.28
2022-12-18T20:42:16.798Z,47.80
2022-12-18T20:44:44.082Z,47.49
2022-12-18T20:47:11.589Z,48.37
2022-12-18T20:49:38.914Z,48.51
2022-12-18T20:52:10.073Z,48.54
2022-12-18T20:54:37.448Z,48.47
2022-12-18T20:57:04.762Z,48.22
2022-12-18T20:59:32.204Z,48.11
2022-12-18T21:01:59.643Z,48.03
2022-12-18T21:04:27.289Z,47.99
2022-12-18T21:06:57.793Z,48.06
2022-12-18T21:09:27.847Z,48.02
2022-12-18T21:12:18.204Z,47.79
2022-12-18T21:14:45.639Z,47.89
2022-12-18T21:17:13.928Z,47.86
2022-12-18T21:19:41.241Z,47.95
2022-12-18T21:22:09.987Z,47.72
2022-12-18T21:24:38.752Z,47.82
2022-12-18T21:27:06.215Z,47.80
2022-12-18T21:29:34.866Z,47.57
2022-12-18T21:32:03.081Z,47.66
2022-12-18T21:34:34.153Z,47.54
2022-12-18T21:37:02.310Z,47.49
2022-12-18T21:39:30.750Z,47.51
2022-12-18T21:42:16.855Z,47.41
2022-12-18T21:44:46.954Z,47.42
2022-12-18T21:47:21.314Z,47.36
2022-12-18T21:49:53.102Z,47.33
2022-12-18T21:52:29.796Z,47.62
2022-12-18T21:55:09.019Z,47.09
2022-12-18T21:57:41.413Z,47.09
2022-12-18T22:00:18.452Z,47.11
2022-12-18T22:02:46.514Z,47.14
2022-12-18T22:05:14.006Z,46.99
2022-12-18T22:07:41.376Z,47.12
2022-12-18T22:10:09.137Z,47.02
2022-12-18T22:12:44.066Z,47.04
2022-12-18T22:15:20.018Z,46.90
2022-12-18T22:17:59.971Z,47.03
2022-12-18T22:20:29.847Z,46.99
2022-12-18T22:22:57.958Z,46.79
2022-12-18T22:25:25.547Z,46.92
2022-12-18T22:28:11.596Z,46.95
2022-12-18T22:30:39.241Z,46.92
2022-12-18T22:33:06.675Z,46.88
2022-12-18T22:35:33.909Z,47.06
2022-12-18T22:38:01.721Z,47.10
2022-12-18T22:40:29.669Z,46.96
2022-12-18T22:42:57.187Z,46.98
2022-12-18T22:45:26.576Z,47.38
2022-12-18T22:47:54.071Z,47.20
2022-12-18T22:50:21.308Z,47.02
2022-12-18T22:52:48.578Z,46.83
2022-12-18T22:55:16.097Z,46.74
2022-12-18T22:57:49.102Z,47.20
2022-12-18T23:00:19.865Z,46.96
2022-12-18T23:02:59.276Z,46.86
2022-12-18T23:05:27.410Z,46.66
2022-12-18T23:07:54.720Z,46.86
2022-12-18T23:10:22.740Z,47.13
2022-12-18T23:12:50.011Z,46.94
2022-12-18T23:15:17.304Z,47.07
2022-12-18T23:17:46.759Z,46.81
2022-12-18T23:20:14.245Z,46.72
2022-12-18T23:22:41.603Z,46.78
2022-12-18T23:25:09.424Z,46.46
2022-12-18T23:27:36.908Z,46.52
2022-12-18T23:30:04.728Z,46.80
2022-12-18T23:32:32.345Z,46.72
2022-12-18T23:35:01.433Z,46.48
2022-12-18T23:37:56.971Z,46.33
2022-12-18T23:40:16.180Z,46.03
2022-12-18T23:42:43.469Z,46.03
2022-12-18T23:45:17.545Z,45.92
2022-12-18T23:47:47.057Z,45.94
2022-12-18T23:50:18.357Z,45.91
2022-12-18T23:52:45.618Z,45.97
2022-12-18T23:55:12.860Z,45.81
2022-12-18T23:57:40.101Z,45.94
